Time;durP1;ratioP1;P1;durP2;ratioP2;P2;SDS_P1;SDS_P2;PMS_P1;PMS_P2;Temp;Humidity;BMP_temperature;BMP_pressure;BME280_temperature;BME280_humidity;BME280_pressure;Samples;Min_cycle;Max_cycle;Signal;HPM_P1;HPM_P2
2023/06/05 00:01:13;;;;;;;10.20;5.47;;;11.10;99.90;;;;;;5059310;28;20045;-79
2023/06/05 00:03:39;;;;;;;12.95;5.82;;;11.20;99.90;;;;;;5059312;28;20041;-78
2023/06/05 00:06:08;;;;;;;7.90;5.60;;;11.40;99.90;;;;;;5042773;28;20053;-79
2023/06/05 00:08:33;;;;;;;12.95;5.80;;;10.80;99.90;;;;;;5057250;28;20136;-79
2023/06/05 00:10:59;;;;;;;9.25;5.47;;;11.10;99.90;;;;;;5042751;28;20152;-78
2023/06/05 00:13:25;;;;;;;11.80;6.10;;;11.20;99.90;;;;;;5042434;28;20412;-79
2023/06/05 00:15:51;;;;;;;7.13;5.40;;;10.90;99.90;;;;;;5059541;28;20405;-79
2023/06/05 00:18:17;;;;;;;8.15;5.65;;;10.90;99.90;;;;;;5059697;28;20040;-78
2023/06/05 00:20:43;;;;;;;11.45;6.47;;;10.90;99.90;;;;;;5060380;28;20462;-78
2023/06/05 00:23:11;;;;;;;8.45;5.55;;;10.90;99.90;;;;;;5061848;28;20054;-78
2023/06/05 00:25:37;;;;;;;11.10;6.15;;;10.90;99.90;;;;;;5061842;28;20052;-79
2023/06/05 00:28:02;;;;;;;8.63;5.30;;;11.30;99.90;;;;;;5053745;28;20059;-79
2023/06/05 00:30:28;;;;;;;9.95;5.95;;;11.30;99.90;;;;;;5061792;28;20041;-78
2023/06/05 00:32:54;;;;;;;6.70;5.35;;;10.90;99.90;;;;;;5062052;28;20052;-79
2023/06/05 00:35:20;;;;;;;9.45;5.88;;;10.90;99.90;;;;;;5061903;28;20411;-79
2023/06/05 00:37:46;;;;;;;8.32;5.22;;;11.30;99.90;;;;;;5058372;28;20037;-79
2023/06/05 00:40:13;;;;;;;9.13;5.45;;;11.00;99.90;;;;;;5055165;28;20457;-79
2023/06/05 00:42:38;;;;;;;7.95;5.53;;;11.00;99.90;;;;;;5061379;28;20044;-78
2023/06/05 00:45:05;;;;;;;10.38;5.43;;;11.10;99.90;;;;;;5062884;28;20085;-79
2023/06/05 00:47:31;;;;;;;8.27;4.97;;;11.00;99.90;;;;;;5062941;28;20057;-78
2023/06/05 00:49:58;;;;;;;8.70;5.00;;;10.90;99.90;;;;;;5060913;28;20444;-78
2023/06/05 00:52:25;;;;;;;7.97;4.75;;;11.00;99.90;;;;;;5059545;28;20081;-79
2023/06/05 00:54:51;;;;;;;7.38;4.88;;;11.00;99.90;;;;;;5062665;28;20052;-79
2023/06/05 00:57:17;;;;;;;8.82;4.68;;;11.10;99.90;;;;;;5060279;28;20044;-78
2023/06/05 00:59:44;;;;;;;8.85;4.78;;;11.00;99.90;;;;;;5057907;28;20068;-79
2023/06/05 01:02:12;;;;;;;9.57;4.65;;;11.00;99.90;;;;;;5061688;28;20102;-78
2023/06/05 01:04:43;;;;;;;9.55;4.90;;;11.10;99.90;;;;;;5061005;28;20064;-79
2023/06/05 01:07:10;;;;;;;11.43;4.80;;;10.90;99.90;;;;;;5058046;28;20056;-77
2023/06/05 01:09:37;;;;;;;7.72;5.13;;;11.00;99.90;;;;;;5053964;28;20095;-78
2023/06/05 01:12:23;;;;;;;9.07;5.35;;;11.00;99.90;;;;;;5052612;28;20044;-78
2023/06/05 01:14:49;;;;;;;10.02;5.25;;;11.00;99.90;;;;;;5058785;28;20488;-79
2023/06/05 01:17:18;;;;;;;9.45;4.68;;;11.00;99.90;;;;;;5062372;28;20103;-79
2023/06/05 01:19:45;;;;;;;10.18;5.72;;;11.20;99.90;;;;;;5059393;28;20048;-78
2023/06/05 01:22:12;;;;;;;10.68;4.90;;;11.20;99.90;;;;;;5060143;28;20373;-78
2023/06/05 01:24:40;;;;;;;7.32;4.53;;;11.00;99.90;;;;;;5059389;28;20055;-78
2023/06/05 01:27:22;;;;;;;9.73;5.60;;;11.00;99.90;;;;;;5057342;28;20064;-79
2023/06/05 01:30:04;;;;;;;7.72;5.13;;;11.00;99.90;;;;;;5054275;28;20128;-79
2023/06/05 01:32:46;;;;;;;9.52;5.55;;;11.00;99.90;;;;;;5049290;28;20153;-78
2023/06/05 01:35:16;;;;;;;8.88;4.95;;;11.00;99.90;;;;;;5058220;28;20057;-79
2023/06/05 01:37:48;;;;;;;7.05;4.93;;;11.30;99.90;;;;;;5060552;28;20119;-79
2023/06/05 01:40:21;;;;;;;8.15;4.80;;;10.70;99.90;;;;;;5050290;28;20479;-78
2023/06/05 01:42:47;;;;;;;9.02;4.35;;;11.10;99.90;;;;;;5051540;28;20091;-78
2023/06/05 01:45:15;;;;;;;10.55;5.25;;;11.10;99.90;;;;;;5058400;28;20041;-78
2023/06/05 01:47:42;;;;;;;7.22;4.55;;;11.10;99.90;;;;;;5059467;28;20077;-78
2023/06/05 01:50:08;;;;;;;7.72;5.05;;;11.10;99.90;;;;;;5059006;28;20048;-78
2023/06/05 01:52:39;;;;;;;8.02;4.82;;;11.10;99.90;;;;;;5058882;28;20076;-79
2023/06/05 01:55:06;;;;;;;8.63;4.45;;;11.00;99.90;;;;;;5060219;28;20049;-79
2023/06/05 01:57:33;;;;;;;8.85;4.57;;;11.10;99.90;;;;;;5060280;28;20402;-79
2023/06/05 02:00:02;;;;;;;10.82;4.88;;;11.20;99.90;;;;;;5040230;28;20057;-79
2023/06/05 02:02:28;;;;;;;7.65;4.50;;;11.10;99.90;;;;;;5062662;28;20071;-78
2023/06/05 02:04:54;;;;;;;7.60;4.60;;;11.10;99.90;;;;;;5058089;28;20045;-78
2023/06/05 02:07:21;;;;;;;7.05;4.88;;;11.10;99.90;;;;;;5064076;28;20129;-78
2023/06/05 02:09:47;;;;;;;9.70;5.70;;;11.20;99.90;;;;;;5059136;28;20067;-78
2023/06/05 02:12:14;;;;;;;11.23;4.75;;;11.20;99.90;;;;;;5045844;28;20395;-79
2023/06/05 02:14:44;;;;;;;7.32;4.82;;;11.20;99.90;;;;;;5055277;28;20048;-79
2023/06/05 02:17:13;;;;;;;8.23;5.20;;;11.20;99.90;;;;;;5052676;28;20496;-79
2023/06/05 02:19:40;;;;;;;8.93;4.90;;;11.50;99.90;;;;;;5053080;28;20052;-78
2023/06/05 02:22:06;;;;;;;7.80;4.55;;;11.50;99.90;;;;;;5055672;28;20053;-78
2023/06/05 02:24:33;;;;;;;8.27;5.47;;;11.60;99.90;;;;;;5057864;28;20060;-78
2023/06/05 02:26:59;;;;;;;9.77;5.60;;;11.20;99.90;;;;;;5048225;28;20041;-78
2023/06/05 02:29:24;;;;;;;8.32;4.80;;;11.30;99.90;;;;;;5059887;28;20045;-78
2023/06/05 02:31:50;;;;;;;8.00;4.35;;;11.30;99.90;;;;;;5060197;28;20040;-79
2023/06/05 02:34:16;;;;;;;9.98;5.07;;;11.20;99.90;;;;;;5052577;28;20083;-79
2023/06/05 02:36:45;;;;;;;8.35;4.90;;;11.30;99.90;;;;;;5061177;28;20080;-78
2023/06/05 02:39:11;;;;;;;13.60;5.50;;;11.20;99.90;;;;;;5058770;28;20097;-79
2023/06/05 02:41:37;;;;;;;9.73;5.32;;;11.20;99.90;;;;;;5046473;28;20072;-78
2023/06/05 02:44:03;;;;;;;11.32;6.00;;;11.30;99.90;;;;;;5053778;28;20048;-78
2023/06/05 02:46:29;;;;;;;9.45;5.47;;;11.30;99.90;;;;;;5057277;28;20415;-78
2023/06/05 02:48:55;;;;;;;8.85;5.00;;;11.30;99.90;;;;;;5056933;28;20077;-79
2023/06/05 02:51:20;;;;;;;7.55;5.20;;;11.30;99.90;;;;;;5058161;28;20503;-79
2023/06/05 02:53:46;;;;;;;7.55;5.28;;;11.30;99.90;;;;;;5059472;28;20052;-79
2023/06/05 02:56:13;;;;;;;10.43;5.15;;;11.30;99.90;;;;;;5056841;28;20045;-78
2023/06/05 02:58:39;;;;;;;9.68;5.47;;;11.30;99.90;;;;;;5056619;28;20052;-78
2023/06/05 03:01:06;;;;;;;9.57;6.25;;;11.40;99.90;;;;;;5058246;28;20127;-79
2023/06/05 03:03:32;;;;;;;12.88;5.57;;;11.60;99.90;;;;;;5064173;28;20079;-78
2023/06/05 03:06:06;;;;;;;9.43;5.55;;;11.40;99.90;;;;;;5052425;28;20041;-79
2023/06/05 03:08:33;;;;;;;8.30;4.67;;;11.30;99.90;;;;;;5056251;28;20171;-79
2023/06/05 03:11:08;;;;;;;8.70;5.20;;;11.30;99.90;;;;;;5052885;28;20306;-78
2023/06/05 03:13:34;;;;;;;7.72;5.70;;;11.60;99.90;;;;;;5052466;28;20041;-78
2023/06/05 03:16:03;;;;;;;9.27;5.40;;;11.60;99.90;;;;;;5060699;28;20047;-78
2023/06/05 03:18:29;;;;;;;7.75;5.18;;;11.40;99.90;;;;;;5060506;28;20055;-79
2023/06/05 03:20:55;;;;;;;8.75;5.38;;;11.70;99.90;;;;;;5059113;28;20789;-79
2023/06/05 03:23:25;;;;;;;11.02;5.70;;;11.70;99.90;;;;;;5048743;28;20040;-79
2023/06/05 03:25:51;;;;;;;11.77;5.72;;;11.50;99.90;;;;;;5049344;28;20147;-78
2023/06/05 03:28:17;;;;;;;11.07;5.35;;;11.50;99.90;;;;;;5065937;28;20044;-79
2023/06/05 03:30:47;;;;;;;9.70;6.07;;;11.70;99.90;;;;;;5060696;28;20045;-79
2023/06/05 03:33:13;;;;;;;8.48;5.53;;;11.60;99.90;;;;;;5057399;28;20214;-78
2023/06/05 03:35:40;;;;;;;9.10;5.50;;;11.60;99.90;;;;;;5055316;28;20056;-78
2023/06/05 03:38:06;;;;;;;11.57;6.13;;;11.70;99.90;;;;;;5054453;28;20052;-79
2023/06/05 03:40:31;;;;;;;13.48;6.18;;;11.60;99.90;;;;;;5057928;28;20502;-78
2023/06/05 03:42:57;;;;;;;10.32;6.00;;;11.70;99.90;;;;;;5051531;28;20134;-79
2023/06/05 03:45:26;;;;;;;8.73;6.40;;;11.60;99.90;;;;;;5056631;28;20060;-78
2023/06/05 03:47:52;;;;;;;9.98;6.05;;;11.70;99.90;;;;;;5057706;28;20041;-79
2023/06/05 03:50:17;;;;;;;8.15;5.90;;;11.90;99.90;;;;;;5061187;28;20059;-79
2023/06/05 03:52:43;;;;;;;10.77;6.47;;;11.70;99.90;;;;;;5060593;28;20044;-79
2023/06/05 03:55:09;;;;;;;13.32;5.85;;;11.80;99.90;;;;;;5056394;28;20484;-79
2023/06/05 03:57:38;;;;;;;11.18;6.50;;;11.70;99.90;;;;;;5058805;28;20756;-78
2023/06/05 04:00:09;;;;;;;9.75;7.15;;;11.80;99.90;;;;;;5062321;28;20152;-78
2023/06/05 04:02:36;;;;;;;9.82;6.65;;;11.70;99.90;;;;;;5063827;28;20123;-78
2023/06/05 04:05:03;;;;;;;12.20;6.93;;;11.70;99.90;;;;;;5052440;28;20160;-79
2023/06/05 04:07:29;;;;;;;10.27;6.55;;;11.80;99.90;;;;;;5059695;28;20130;-79
2023/06/05 04:09:55;;;;;;;12.10;6.55;;;12.10;99.90;;;;;;5053580;28;20041;-80
2023/06/05 04:12:21;;;;;;;13.20;7.05;;;11.80;99.90;;;;;;5064527;28;20487;-80
2023/06/05 04:14:47;;;;;;;10.98;7.22;;;11.80;99.90;;;;;;5065620;28;20043;-80
2023/06/05 04:17:13;;;;;;;12.18;7.53;;;11.80;99.90;;;;;;5062211;28;20037;-80
2023/06/05 04:19:40;;;;;;;11.05;7.07;;;11.90;99.90;;;;;;5066464;28;20067;-80
2023/06/05 04:22:06;;;;;;;10.90;6.78;;;11.90;99.90;;;;;;5088795;28;20167;-80
2023/06/05 04:24:31;;;;;;;10.30;6.43;;;11.90;99.90;;;;;;5076064;28;20041;-81
2023/06/05 04:27:00;;;;;;;12.00;6.93;;;11.90;99.90;;;;;;5060438;28;20044;-81
2023/06/05 04:29:26;;;;;;;11.48;6.00;;;11.90;99.90;;;;;;5059098;28;20053;-81
2023/06/05 04:31:52;;;;;;;12.65;5.60;;;12.00;99.90;;;;;;5060134;28;20079;-82
2023/06/05 04:34:19;;;;;;;9.55;5.20;;;12.00;99.90;;;;;;5060796;28;20530;-80
2023/06/05 04:36:46;;;;;;;8.52;4.70;;;12.00;99.90;;;;;;5062652;28;20036;-80
2023/06/05 04:39:15;;;;;;;6.43;4.30;;;12.00;99.90;;;;;;5060009;28;20040;-80
2023/06/05 04:41:45;;;;;;;5.75;3.33;;;12.00;99.90;;;;;;5063145;28;20037;-79
2023/06/05 04:44:18;;;;;;;6.88;3.70;;;12.00;99.90;;;;;;5061794;28;20051;-82
2023/06/05 04:46:44;;;;;;;5.15;3.40;;;12.10;99.90;;;;;;5049479;28;20048;-82
2023/06/05 04:49:11;;;;;;;6.85;3.00;;;12.20;99.90;;;;;;5063927;28;20052;-80
2023/06/05 04:51:37;;;;;;;3.88;2.92;;;12.10;99.90;;;;;;5061482;28;20037;-80
2023/06/05 04:54:03;;;;;;;5.00;2.80;;;12.10;99.90;;;;;;5062645;28;20049;-79
2023/06/05 04:56:29;;;;;;;5.28;2.08;;;12.20;99.90;;;;;;5051953;28;20065;-81
2023/06/05 04:58:55;;;;;;;4.35;2.22;;;12.20;99.90;;;;;;5062932;28;20478;-80
2023/06/05 05:01:21;;;;;;;4.40;2.00;;;12.60;99.90;;;;;;5063008;28;20040;-81
2023/06/05 05:03:47;;;;;;;4.00;2.17;;;12.20;99.90;;;;;;5061460;28;20505;-80
2023/06/05 05:06:17;;;;;;;4.75;2.33;;;12.20;99.90;;;;;;5057803;28;20128;-81
2023/06/05 05:08:46;;;;;;;2.92;1.60;;;12.20;99.90;;;;;;5058823;28;20541;-81
2023/06/05 05:11:12;;;;;;;4.60;2.30;;;12.50;99.90;;;;;;5060407;28;20064;-80
2023/06/05 05:13:38;;;;;;;5.18;2.17;;;12.50;99.90;;;;;;5057076;28;20091;-80
2023/06/05 05:16:04;;;;;;;3.88;2.20;;;12.30;99.90;;;;;;5050839;28;20071;-80
2023/06/05 05:18:30;;;;;;;5.90;2.30;;;12.40;99.90;;;;;;5057162;28;20428;-83
2023/06/05 05:20:56;;;;;;;5.43;2.08;;;12.40;99.90;;;;;;5062598;28;20087;-80
2023/06/05 05:23:22;;;;;;;3.38;1.98;;;12.40;99.90;;;;;;5061818;28;20053;-78
2023/06/05 05:25:48;;;;;;;3.53;2.15;;;12.50;99.90;;;;;;5061259;28;20052;-80
2023/06/05 05:28:14;;;;;;;4.90;2.20;;;12.50;99.90;;;;;;5050937;28;20045;-80
2023/06/05 05:30:39;;;;;;;5.70;2.45;;;12.50;99.90;;;;;;5060753;28;20058;-80
2023/06/05 05:33:05;;;;;;;3.53;2.15;;;12.60;99.90;;;;;;5060731;28;20055;-81
2023/06/05 05:35:31;;;;;;;4.47;2.42;;;12.70;99.90;;;;;;5050391;28;20072;-81
2023/06/05 05:37:57;;;;;;;5.20;2.28;;;12.70;99.90;;;;;;5057319;28;20049;-80
2023/06/05 05:40:22;;;;;;;4.05;2.30;;;12.80;99.90;;;;;;5053889;28;20503;-81
2023/06/05 05:42:48;;;;;;;3.92;2.20;;;12.90;99.90;;;;;;5060551;28;20045;-79
2023/06/05 05:45:14;;;;;;;4.07;2.15;;;12.90;99.90;;;;;;5054143;28;20057;-81
2023/06/05 05:47:40;;;;;;;3.00;1.80;;;13.00;99.90;;;;;;5057782;28;20059;-78
2023/06/05 05:50:06;;;;;;;3.13;1.77;;;13.00;99.90;;;;;;5051763;28;20508;-80
2023/06/05 05:52:32;;;;;;;3.78;1.80;;;13.10;99.90;;;;;;5060572;28;20152;-81
2023/06/05 05:54:59;;;;;;;4.35;1.77;;;13.10;99.90;;;;;;5058738;28;20127;-81
2023/06/05 05:57:25;;;;;;;3.90;1.92;;;13.10;99.90;;;;;;5057511;28;20056;-78
2023/06/05 05:59:51;;;;;;;3.42;1.75;;;13.20;99.90;;;;;;5058749;28;20041;-80
2023/06/05 06:02:17;;;;;;;6.20;1.80;;;13.20;99.90;;;;;;5061802;28;20395;-79
2023/06/05 06:04:46;;;;;;;3.78;1.83;;;13.20;99.90;;;;;;5060774;28;20692;-79
2023/06/05 06:07:11;;;;;;;4.78;1.80;;;13.30;99.90;;;;;;5056214;28;20095;-78
2023/06/05 06:09:37;;;;;;;4.57;1.63;;;13.30;99.90;;;;;;5058271;28;20057;-79
2023/06/05 06:12:05;;;;;;;3.60;1.75;;;13.40;99.90;;;;;;5059139;28;20484;-76
2023/06/05 06:14:32;;;;;;;2.72;1.33;;;13.40;99.90;;;;;;5047877;28;20073;-77
2023/06/05 06:16:58;;;;;;;5.38;1.50;;;13.40;99.90;;;;;;5055914;28;20485;-79
2023/06/05 06:19:25;;;;;;;3.70;2.08;;;13.50;99.90;;;;;;5054806;28;20123;-78
2023/06/05 06:21:53;;;;;;;3.92;1.98;;;13.60;99.90;;;;;;5055069;28;20059;-76
2023/06/05 06:24:20;;;;;;;4.60;2.22;;;13.60;99.90;;;;;;5052670;28;20076;-77
2023/06/05 06:26:46;;;;;;;3.40;1.60;;;13.70;99.90;;;;;;5061178;28;20476;-79
2023/06/05 06:29:15;;;;;;;3.75;1.92;;;13.80;99.90;;;;;;5058767;28;20059;-78
2023/06/05 06:31:42;;;;;;;3.67;2.17;;;13.80;99.90;;;;;;5054211;28;20057;-78
2023/06/05 06:34:09;;;;;;;4.15;1.90;;;13.90;99.90;;;;;;5061522;28;20053;-78
2023/06/05 06:36:40;;;;;;;4.45;1.90;;;13.90;99.90;;;;;;5051566;28;20053;-77
2023/06/05 06:39:07;;;;;;;3.30;2.15;;;14.00;99.90;;;;;;5064444;28;20789;-77
2023/06/05 06:41:34;;;;;;;2.97;2.10;;;14.20;99.90;;;;;;5055945;28;20565;-78
2023/06/05 06:44:00;;;;;;;4.40;2.10;;;14.30;99.90;;;;;;5046210;28;20507;-78
2023/06/05 06:46:26;;;;;;;3.80;2.10;;;14.40;99.90;;;;;;5061297;28;20049;-78
2023/06/05 06:48:51;;;;;;;5.32;2.28;;;14.50;99.90;;;;;;5058306;28;20249;-79
2023/06/05 06:51:17;;;;;;;4.32;2.25;;;14.50;99.90;;;;;;5058513;28;20459;-79
2023/06/05 06:53:44;;;;;;;4.43;2.50;;;14.60;99.90;;;;;;5060622;28;20182;-78
2023/06/05 06:56:09;;;;;;;5.15;2.10;;;14.60;99.90;;;;;;5058059;28;20407;-77
2023/06/05 06:58:36;;;;;;;4.45;2.42;;;15.00;99.90;;;;;;5059195;28;20052;-80
2023/06/05 07:01:03;;;;;;;3.88;2.10;;;15.20;99.90;;;;;;5043271;28;20051;-78
2023/06/05 07:03:28;;;;;;;4.50;2.22;;;15.30;99.90;;;;;;5050951;28;20064;-80
2023/06/05 07:05:54;;;;;;;4.40;1.85;;;15.60;99.90;;;;;;5057351;28;20158;-79
2023/06/05 07:08:20;;;;;;;4.47;2.47;;;15.80;99.90;;;;;;5059410;28;20045;-77
2023/06/05 07:10:45;;;;;;;5.10;1.98;;;15.80;99.90;;;;;;5058923;28;20056;-78
2023/06/05 07:13:12;;;;;;;4.63;2.17;;;16.10;99.90;;;;;;5062252;28;20041;-79
2023/06/05 07:15:37;;;;;;;7.60;2.63;;;16.40;99.90;;;;;;5062841;28;20102;-78
2023/06/05 07:18:03;;;;;;;4.50;2.40;;;16.60;99.90;;;;;;5066104;28;20029;-77
2023/06/05 07:20:28;;;;;;;5.40;2.72;;;16.90;99.90;;;;;;5073742;28;20080;-81
2023/06/05 07:22:54;;;;;;;4.60;1.90;;;17.20;99.90;;;;;;5066496;28;20492;-79
2023/06/05 07:25:22;;;;;;;6.50;2.40;;;17.30;99.90;;;;;;5061763;28;20040;-79
2023/06/05 07:27:48;;;;;;;5.82;2.30;;;17.20;99.90;;;;;;5056819;28;20101;-77
2023/06/05 07:30:14;;;;;;;7.38;2.50;;;17.40;99.90;;;;;;5063178;28;20037;-78
2023/06/05 07:32:42;;;;;;;6.93;2.10;;;17.50;99.90;;;;;;5064639;28;20044;-78
2023/06/05 07:35:08;;;;;;;3.33;2.10;;;17.60;99.90;;;;;;5063125;28;20137;-80
2023/06/05 07:37:34;;;;;;;3.33;2.53;;;17.90;99.90;;;;;;5060028;28;20083;-80
2023/06/05 07:40:00;;;;;;;5.90;2.75;;;17.80;99.90;;;;;;5061296;28;20044;-81
2023/06/05 07:42:26;;;;;;;5.93;2.03;;;17.70;99.90;;;;;;5059848;28;20049;-79
2023/06/05 07:44:51;;;;;;;6.53;2.70;;;17.80;99.90;;;;;;5063013;28;20089;-80
2023/06/05 07:47:17;;;;;;;4.72;2.33;;;17.90;99.90;;;;;;5061033;28;20138;-81
2023/06/05 07:49:43;;;;;;;6.38;3.08;;;17.90;99.90;;;;;;5063768;28;20123;-79
2023/06/05 07:52:08;;;;;;;10.07;2.42;;;17.90;99.90;;;;;;5062124;28;20041;-79
2023/06/05 07:54:34;;;;;;;4.85;2.30;;;18.10;99.90;;;;;;5057558;28;20448;-76
2023/06/05 07:57:00;;;;;;;4.93;2.22;;;18.10;99.90;;;;;;5061125;28;20119;-78
2023/06/05 07:59:27;;;;;;;6.18;2.20;;;18.20;99.90;;;;;;5055338;28;20834;-77
2023/06/05 08:01:54;;;;;;;4.38;2.42;;;18.50;99.90;;;;;;5060165;28;20057;-78
2023/06/05 08:04:19;;;;;;;5.30;2.85;;;18.50;99.90;;;;;;5063871;28;20076;-79
2023/06/05 08:06:45;;;;;;;3.22;2.17;;;18.70;99.90;;;;;;5063016;28;20130;-81
2023/06/05 08:09:12;;;;;;;5.70;2.50;;;18.80;99.90;;;;;;5060641;28;20041;-78
2023/06/05 08:11:38;;;;;;;5.00;2.78;;;19.00;99.90;;;;;;5059103;28;20067;-77
2023/06/05 08:14:07;;;;;;;3.92;2.20;;;19.00;99.90;;;;;;5062986;28;20480;-78
2023/06/05 08:16:34;;;;;;;3.72;2.33;;;19.00;99.90;;;;;;5059578;28;20040;-79
2023/06/05 08:19:00;;;;;;;3.92;2.42;;;19.20;99.90;;;;;;5057843;28;20373;-81
2023/06/05 08:21:26;;;;;;;3.53;2.28;;;19.20;99.90;;;;;;5062346;28;20043;-79
2023/06/05 08:23:51;;;;;;;4.88;2.25;;;19.30;99.90;;;;;;5063605;28;20041;-80
2023/06/05 08:26:21;;;;;;;6.43;2.70;;;19.40;99.90;;;;;;5059215;28;20450;-82
2023/06/05 08:28:48;;;;;;;6.63;2.35;;;19.30;99.90;;;;;;5054058;28;20041;-82
2023/06/05 08:31:15;;;;;;;4.20;2.03;;;19.10;99.90;;;;;;5061720;28;20567;-81
2023/06/05 08:33:41;;;;;;;7.88;2.58;;;19.30;99.90;;;;;;5061848;28;20052;-81
2023/06/05 08:36:07;;;;;;;7.10;2.47;;;19.30;99.90;;;;;;5062940;28;20697;-82
2023/06/05 08:38:34;;;;;;;6.07;2.10;;;19.10;99.90;;;;;;5052777;28;20047;-76
2023/06/05 08:41:07;;;;;;;4.40;2.38;;;19.40;99.90;;;;;;5059892;28;20091;-80
2023/06/05 08:43:36;;;;;;;6.82;2.20;;;19.50;99.90;;;;;;5059661;28;20033;-78
2023/06/05 08:46:04;;;;;;;4.63;2.20;;;19.40;99.90;;;;;;5063292;28;20051;-82
2023/06/05 08:48:34;;;;;;;3.05;1.90;;;19.40;99.90;;;;;;5060062;28;20109;-82
2023/06/05 08:51:00;;;;;;;4.82;2.30;;;19.40;99.90;;;;;;5057085;28;20143;-79
2023/06/05 08:53:32;;;;;;;4.30;2.28;;;19.50;99.90;;;;;;5058418;28;20051;-80
2023/06/05 08:55:58;;;;;;;2.95;1.95;;;19.50;99.90;;;;;;5062405;28;20048;-80
2023/06/05 08:58:24;;;;;;;5.32;2.10;;;19.70;99.90;;;;;;5061309;28;20045;-78
2023/06/05 09:00:50;;;;;;;4.63;2.35;;;19.90;99.90;;;;;;5059691;28;20049;-76
2023/06/05 09:03:19;;;;;;;4.63;2.22;;;20.10;99.90;;;;;;5058026;28;20403;-77
2023/06/05 09:05:46;;;;;;;3.33;1.90;;;20.10;99.90;;;;;;5060731;28;20563;-79
2023/06/05 09:08:13;;;;;;;3.45;2.13;;;20.30;99.90;;;;;;5062725;28;20139;-78
2023/06/05 09:10:39;;;;;;;3.75;2.00;;;20.50;99.90;;;;;;5050045;28;20452;-79
2023/06/05 09:13:05;;;;;;;4.05;2.20;;;20.60;99.90;;;;;;5061001;28;20098;-79
2023/06/05 09:15:33;;;;;;;6.10;2.00;;;20.50;99.90;;;;;;5061271;28;20055;-80
2023/06/05 09:18:08;;;;;;;5.32;2.33;;;20.70;99.90;;;;;;5036443;28;20045;-78
2023/06/05 09:20:36;;;;;;;3.15;2.20;;;20.90;99.90;;;;;;5062679;28;20048;-80
2023/06/05 09:23:03;;;;;;;5.75;2.30;;;20.90;99.90;;;;;;5057715;28;20427;-80
2023/06/05 09:25:50;;;;;;;5.22;2.30;;;21.10;99.90;;;;;;5062672;28;20041;-78
2023/06/05 09:28:16;;;;;;;5.28;2.25;;;21.40;99.90;;;;;;5057582;28;20036;-80
2023/06/05 09:30:58;;;;;;;5.15;2.90;;;21.60;99.90;;;;;;5053626;28;20055;-82
2023/06/05 09:33:26;;;;;;;4.88;2.35;;;21.60;99.90;;;;;;5060663;28;20056;-81
2023/06/05 09:36:09;;;;;;;3.25;1.80;;;21.70;99.90;;;;;;5044150;28;20064;-76
2023/06/05 09:38:36;;;;;;;3.67;2.20;;;21.90;99.90;;;;;;5049413;28;20040;-82
2023/06/05 09:41:10;;;;;;;3.80;2.15;;;21.70;99.90;;;;;;5054011;28;20045;-81
2023/06/05 09:43:37;;;;;;;5.13;2.60;;;21.90;99.90;;;;;;5060430;28;20143;-80
2023/06/05 09:46:13;;;;;;;5.07;2.00;;;21.90;99.90;;;;;;5062704;28;20094;-76
2023/06/05 09:48:40;;;;;;;4.15;2.17;;;21.90;99.30;;;;;;5057231;28;20454;-77
2023/06/05 09:51:17;;;;;;;6.47;2.35;;;22.00;99.90;;;;;;5060316;28;20052;-77
2023/06/05 09:53:50;;;;;;;4.07;2.28;;;22.10;99.90;;;;;;5057963;28;20403;-79
2023/06/05 09:56:18;;;;;;;4.35;2.22;;;22.20;99.90;;;;;;5058763;28;20202;-79
2023/06/05 09:58:49;;;;;;;7.63;3.28;;;22.30;99.90;;;;;;5056661;28;20551;-82
2023/06/05 10:01:27;;;;;;;4.30;2.45;;;22.30;99.70;;;;;;5054853;28;20045;-74
2023/06/05 10:03:58;;;;;;;3.85;2.20;;;22.30;99.90;;;;;;5066313;28;20049;-74
2023/06/05 10:06:28;;;;;;;5.82;2.45;;;22.40;99.80;;;;;;5066043;28;20044;-77
2023/06/05 10:08:57;;;;;;;6.22;2.25;;;22.50;99.40;;;;;;5068706;28;20568;-75
2023/06/05 10:11:25;;;;;;;3.97;2.22;;;22.40;99.70;;;;;;5064215;28;20060;-77
2023/06/05 10:13:51;;;;;;;3.03;2.10;;;22.50;99.80;;;;;;5059709;28;20044;-77
2023/06/05 10:16:18;;;;;;;3.42;2.17;;;22.40;99.90;;;;;;5066737;28;20450;-76
2023/06/05 10:18:48;;;;;;;4.75;2.28;;;22.50;98.90;;;;;;5067371;28;20091;-75
2023/06/05 10:21:16;;;;;;;3.50;1.92;;;22.50;98.90;;;;;;5056440;28;20045;-76
2023/06/05 10:23:48;;;;;;;4.13;2.40;;;22.60;99.50;;;;;;5045022;28;20062;-77
2023/06/05 10:26:44;;;;;;;4.47;2.55;;;22.70;99.50;;;;;;5065690;28;20051;-77
2023/06/05 10:29:41;;;;;;;2.90;1.98;;;22.70;97.40;;;;;;5048830;28;20102;-76
2023/06/05 10:32:29;;;;;;;4.05;2.17;;;22.80;98.60;;;;;;5067723;28;20496;-77
2023/06/05 10:35:17;;;;;;;4.22;2.35;;;22.70;98.80;;;;;;5056228;28;20068;-78
2023/06/05 10:37:54;;;;;;;5.68;2.53;;;22.80;98.00;;;;;;5048910;28;20033;-77
2023/06/05 10:40:21;;;;;;;4.03;2.30;;;22.70;97.80;;;;;;5058638;28;20414;-78
2023/06/05 10:42:47;;;;;;;4.95;2.40;;;22.70;98.70;;;;;;5056818;28;20488;-75
2023/06/05 10:45:12;;;;;;;3.95;1.92;;;22.90;98.90;;;;;;5056923;28;20055;-78
2023/06/05 10:47:38;;;;;;;3.60;2.10;;;22.90;99.00;;;;;;5055303;28;20055;-75
2023/06/05 10:50:19;;;;;;;6.35;2.33;;;22.90;98.80;;;;;;5044349;28;20048;-76
2023/06/05 10:52:46;;;;;;;5.05;2.33;;;23.00;97.80;;;;;;5057241;28;20495;-78
2023/06/05 10:55:12;;;;;;;3.03;2.10;;;23.10;98.50;;;;;;5056646;28;20052;-80
2023/06/05 10:58:04;;;;;;;4.15;2.13;;;23.10;98.40;;;;;;5058686;28;20045;-79
2023/06/05 11:00:34;;;;;;;4.75;2.28;;;23.20;97.70;;;;;;5059565;28;20045;-77
2023/06/05 11:03:01;;;;;;;3.67;2.20;;;23.40;98.40;;;;;;5054029;28;20048;-77
2023/06/05 11:05:27;;;;;;;5.78;1.95;;;23.40;98.40;;;;;;5059300;28;20099;-78
2023/06/05 11:08:13;;;;;;;7.55;2.15;;;23.30;98.20;;;;;;5062660;28;20120;-76
2023/06/05 11:11:05;;;;;;;3.45;2.40;;;23.30;97.40;;;;;;5064804;28;20521;-75
2023/06/05 11:13:54;;;;;;;3.35;1.92;;;23.20;96.80;;;;;;5056580;28;20771;-77
2023/06/05 11:16:31;;;;;;;5.55;2.20;;;23.40;97.00;;;;;;5053092;28;20044;-80
2023/06/05 11:19:22;;;;;;;3.95;1.90;;;23.40;97.40;;;;;;5053951;28;20493;-75
2023/06/05 11:22:13;;;;;;;8.10;2.17;;;23.50;97.60;;;;;;5002585;28;20180;-78
2023/06/05 11:24:39;;;;;;;3.28;1.85;;;23.50;97.20;;;;;;4983041;28;20429;-75
2023/06/05 11:27:08;;;;;;;4.47;1.60;;;23.50;97.90;;;;;;4995512;28;20051;-75
2023/06/05 11:29:34;;;;;;;3.38;2.20;;;23.60;97.70;;;;;;5000681;28;20109;-77
2023/06/05 11:32:00;;;;;;;4.25;2.30;;;23.60;97.80;;;;;;5005549;28;20213;-77
2023/06/05 11:34:29;;;;;;;3.80;2.17;;;23.60;97.80;;;;;;4994654;28;20530;-76
2023/06/05 11:36:55;;;;;;;5.43;2.42;;;23.50;97.40;;;;;;4983085;28;20037;-76
2023/06/05 11:39:21;;;;;;;5.53;1.90;;;23.50;97.40;;;;;;4994981;28;20054;-74
2023/06/05 11:41:50;;;;;;;4.13;2.10;;;23.70;97.70;;;;;;5002432;28;20073;-73
2023/06/05 11:44:29;;;;;;;2.92;1.45;;;23.70;97.30;;;;;;5002054;28;20057;-73
2023/06/05 11:46:54;;;;;;;4.70;1.80;;;23.70;97.20;;;;;;4993079;28;20049;-75
2023/06/05 11:49:25;;;;;;;3.78;1.92;;;23.80;97.60;;;;;;5002669;28;20046;-74
2023/06/05 11:51:51;;;;;;;3.03;1.83;;;23.80;97.30;;;;;;4999281;28;20082;-73
2023/06/05 11:54:30;;;;;;;3.50;1.80;;;23.90;97.20;;;;;;4999117;28;20050;-71
2023/06/05 11:57:07;;;;;;;3.17;1.80;;;23.80;96.60;;;;;;4999436;28;20045;-72
2023/06/05 11:59:34;;;;;;;5.22;2.10;;;23.70;97.30;;;;;;5062132;28;20492;-73
2023/06/05 12:02:00;;;;;;;3.72;1.90;;;23.80;97.00;;;;;;5064095;28;20044;-72
2023/06/05 12:04:26;;;;;;;3.80;1.92;;;23.80;97.00;;;;;;5062772;28;20053;-74
2023/06/05 12:06:53;;;;;;;3.45;1.77;;;23.80;97.20;;;;;;5060301;28;20450;-73
2023/06/05 12:09:19;;;;;;;4.03;1.60;;;24.00;96.90;;;;;;5055865;28;20683;-75
2023/06/05 12:11:45;;;;;;;4.10;1.90;;;23.90;97.00;;;;;;5055232;28;20067;-73
2023/06/05 12:14:13;;;;;;;3.78;1.75;;;23.90;96.80;;;;;;5068118;28;20040;-76
2023/06/05 12:16:45;;;;;;;2.45;1.70;;;24.00;96.80;;;;;;5061002;28;20845;-72
2023/06/05 12:19:16;;;;;;;5.50;1.80;;;23.90;96.60;;;;;;5060576;28;20392;-75
2023/06/05 12:21:47;;;;;;;3.53;1.42;;;23.90;96.50;;;;;;5041887;28;20057;-72
2023/06/05 12:24:14;;;;;;;3.40;1.73;;;24.00;96.90;;;;;;5061590;28;20057;-77
2023/06/05 12:26:58;;;;;;;3.67;1.67;;;24.10;97.00;;;;;;5062114;28;20098;-71
2023/06/05 12:29:54;;;;;;;4.38;1.83;;;24.10;96.40;;;;;;5050353;28;20049;-74
2023/06/05 12:32:24;;;;;;;2.75;1.55;;;24.00;96.10;;;;;;5062389;28;20052;-71
2023/06/05 12:34:51;;;;;;;4.97;1.77;;;24.10;96.80;;;;;;5062049;28;20120;-73
2023/06/05 12:37:29;;;;;;;3.58;1.75;;;24.20;96.90;;;;;;5060409;28;20052;-73
2023/06/05 12:39:58;;;;;;;6.32;1.88;;;24.10;95.70;;;;;;5057282;28;20049;-75
2023/06/05 12:42:24;;;;;;;3.78;1.80;;;24.10;96.50;;;;;;5058681;28;20045;-73
2023/06/05 12:44:50;;;;;;;3.60;1.80;;;24.20;96.70;;;;;;5063051;28;20047;-72
2023/06/05 12:47:17;;;;;;;6.32;1.73;;;23.90;96.40;;;;;;5061823;28;20154;-73
2023/06/05 12:49:42;;;;;;;5.22;2.05;;;24.00;96.80;;;;;;5041839;28;20049;-73
2023/06/05 12:52:08;;;;;;;2.65;1.60;;;23.90;96.20;;;;;;5061410;28;20052;-76